Time;durP1;ratioP1;P1;durP2;ratioP2;P2;SDS_P1;SDS_P2;PMS_P1;PMS_P2;Temp;Humidity;BMP_temperature;BMP_pressure;BME280_temperature;BME280_humidity;BME280_pressure;Samples;Min_cycle;Max_cycle;Signal;HPM_P1;HPM_P2
2022/10/02 00:02:15;;;;;;;10.27;2.50;;;15.20;81.20;;;;;;5114187;27;20165;-67
2022/10/02 00:04:59;;;;;;;13.18;2.97;;;15.20;81.30;;;;;;5113834;28;20023;-67
2022/10/02 00:07:47;;;;;;;10.05;2.72;;;15.20;81.30;;;;;;5115010;28;20080;-67
2022/10/02 00:10:25;;;;;;;12.93;2.78;;;15.20;81.20;;;;;;5113852;28;20027;-67
2022/10/02 00:12:56;;;;;;;7.53;2.10;;;15.20;81.30;;;;;;5115237;28;20024;-67
2022/10/02 00:15:26;;;;;;;11.27;2.60;;;15.20;81.20;;;;;;5131195;27;20042;-67
2022/10/02 00:17:55;;;;;;;6.60;1.58;;;15.20;81.20;;;;;;5114640;28;20040;-67
2022/10/02 00:20:28;;;;;;;8.65;1.85;;;15.20;81.10;;;;;;5113884;28;20030;-67
2022/10/02 00:23:06;;;;;;;5.30;1.63;;;15.20;81.10;;;;;;5113123;27;20051;-67
2022/10/02 00:26:02;;;;;;;7.30;1.95;;;15.20;81.10;;;;;;5114230;28;20015;-67
2022/10/02 00:28:48;;;;;;;8.77;1.80;;;15.20;81.10;;;;;;5129638;27;20080;-67
2022/10/02 00:31:52;;;;;;;5.07;1.48;;;15.10;81.10;;;;;;5114188;28;20448;-67
2022/10/02 00:35:00;;;;;;;7.35;2.00;;;15.10;81.60;;;;;;5129911;27;20032;-67
2022/10/02 00:37:28;;;;;;;6.40;1.20;;;15.10;81.00;;;;;;5096461;28;20072;-67
2022/10/02 00:40:25;;;;;;;5.72;1.70;;;15.10;81.00;;;;;;5113718;28;20325;-67
2022/10/02 00:42:59;;;;;;;9.15;2.00;;;15.00;81.00;;;;;;5113759;28;20027;-67
2022/10/02 00:45:57;;;;;;;8.07;2.25;;;15.00;81.00;;;;;;5114557;28;20030;-67
2022/10/02 00:48:38;;;;;;;8.95;1.95;;;15.00;81.00;;;;;;5113649;28;20333;-67
2022/10/02 00:51:32;;;;;;;5.85;1.75;;;14.90;81.00;;;;;;5113352;28;20110;-67
2022/10/02 00:54:22;;;;;;;7.07;1.42;;;14.90;81.00;;;;;;5129456;27;20038;-67
2022/10/02 00:57:04;;;;;;;6.55;2.20;;;14.90;81.00;;;;;;5095702;28;20020;-66
2022/10/02 00:59:30;;;;;;;8.60;1.88;;;14.80;81.00;;;;;;5130395;27;20032;-67
2022/10/02 01:02:09;;;;;;;6.40;1.77;;;14.80;81.00;;;;;;5114099;27;20024;-67
2022/10/02 01:04:37;;;;;;;4.63;1.23;;;14.80;81.00;;;;;;5128846;27;20026;-67
2022/10/02 01:07:10;;;;;;;4.68;1.27;;;14.80;81.00;;;;;;5115881;27;20034;-67
2022/10/02 01:09:37;;;;;;;4.72;1.13;;;14.70;81.00;;;;;;5111373;28;20077;-67
2022/10/02 01:12:04;;;;;;;4.93;1.38;;;14.70;81.00;;;;;;5114048;28;20440;-67
2022/10/02 01:14:38;;;;;;;6.90;1.67;;;14.70;81.00;;;;;;5112997;28;20035;-67
2022/10/02 01:17:18;;;;;;;5.30;1.30;;;14.70;81.00;;;;;;5112771;28;20043;-66
2022/10/02 01:19:44;;;;;;;4.93;1.50;;;14.70;81.00;;;;;;5113437;27;20022;-67
2022/10/02 01:22:14;;;;;;;5.05;1.63;;;14.70;81.10;;;;;;5113766;28;20431;-67
2022/10/02 01:24:50;;;;;;;8.20;2.00;;;14.70;81.10;;;;;;5112184;27;20334;-67
2022/10/02 01:27:16;;;;;;;7.68;1.77;;;14.70;81.20;;;;;;5113385;28;20024;-67
2022/10/02 01:29:49;;;;;;;8.35;2.22;;;14.70;81.10;;;;;;5112535;28;20028;-67
2022/10/02 01:32:17;;;;;;;9.70;2.50;;;14.70;81.20;;;;;;5128237;27;20128;-67
2022/10/02 01:34:44;;;;;;;10.70;2.35;;;14.70;81.30;;;;;;5112867;28;20659;-67
2022/10/02 01:37:11;;;;;;;10.52;2.80;;;14.70;81.30;;;;;;5112472;28;20031;-67
2022/10/02 01:39:36;;;;;;;10.40;3.15;;;14.70;81.40;;;;;;5111799;27;20023;-67
2022/10/02 01:42:02;;;;;;;11.10;2.80;;;14.70;81.40;;;;;;5114496;27;20466;-67
2022/10/02 01:44:29;;;;;;;9.05;2.88;;;14.70;81.50;;;;;;5111872;28;20026;-67
2022/10/02 01:47:10;;;;;;;11.02;3.13;;;14.70;81.50;;;;;;5128608;27;20065;-67
2022/10/02 01:50:01;;;;;;;10.48;3.40;;;14.70;81.70;;;;;;5109065;28;20486;-67
2022/10/02 01:52:48;;;;;;;10.45;3.63;;;14.70;81.70;;;;;;5112244;28;20056;-67
2022/10/02 01:55:26;;;;;;;10.25;3.50;;;14.70;81.70;;;;;;5112602;27;20023;-67
2022/10/02 01:58:01;;;;;;;11.02;3.78;;;14.70;81.90;;;;;;5093550;28;20032;-67
2022/10/02 02:00:37;;;;;;;13.70;4.20;;;14.80;82.00;;;;;;5112285;28;20035;-67
2022/10/02 02:03:26;;;;;;;11.10;4.20;;;14.70;82.10;;;;;;5111790;28;20076;-67
2022/10/02 02:06:02;;;;;;;12.25;4.85;;;14.80;82.30;;;;;;5112092;28;20436;-67
2022/10/02 02:08:36;;;;;;;13.15;5.38;;;14.80;82.50;;;;;;5112078;28;20153;-67
2022/10/02 02:11:10;;;;;;;14.82;5.63;;;14.80;82.70;;;;;;5111700;28;20451;-67
2022/10/02 02:13:59;;;;;;;12.35;5.88;;;14.80;82.70;;;;;;5112401;28;20093;-67
2022/10/02 02:16:40;;;;;;;14.48;5.63;;;14.80;82.80;;;;;;5110952;28;20059;-67
2022/10/02 02:19:15;;;;;;;12.57;5.57;;;14.80;82.90;;;;;;5111188;28;20028;-67
2022/10/02 02:21:49;;;;;;;14.88;6.70;;;14.80;83.00;;;;;;5113339;28;20107;-67
2022/10/02 02:24:22;;;;;;;14.93;6.05;;;14.90;83.10;;;;;;5111893;28;20039;-67
2022/10/02 02:26:49;;;;;;;12.45;6.45;;;14.90;83.20;;;;;;5113052;28;20035;-67
2022/10/02 02:29:20;;;;;;;13.65;6.88;;;14.90;83.20;;;;;;5113165;28;20394;-67
2022/10/02 02:31:52;;;;;;;15.35;6.70;;;14.90;83.30;;;;;;5112073;28;20031;-67
2022/10/02 02:34:22;;;;;;;;;;;14.90;83.40;;;;;;5109674;28;20448;-67
2022/10/02 02:36:53;;;;;;;13.77;5.97;;;14.90;83.20;;;;;;5110134;28;20347;-67
2022/10/02 02:39:27;;;;;;;13.85;6.93;;;14.90;83.30;;;;;;5093324;28;20039;-68
2022/10/02 02:41:58;;;;;;;13.13;6.78;;;14.80;83.30;;;;;;5113038;28;20028;-68
2022/10/02 02:44:29;;;;;;;15.63;7.40;;;14.80;83.40;;;;;;5117137;28;20015;-67
2022/10/02 02:47:11;;;;;;;15.85;6.25;;;14.80;83.50;;;;;;5115479;27;20068;-67
2022/10/02 02:50:07;;;;;;;13.60;5.65;;;14.80;83.50;;;;;;5116371;28;20437;-67
2022/10/02 02:52:40;;;;;;;14.75;6.20;;;14.80;83.60;;;;;;5110523;28;20452;-67
2022/10/02 02:55:13;;;;;;;13.95;5.95;;;14.80;83.70;;;;;;5115682;28;20031;-67
2022/10/02 02:57:48;;;;;;;13.23;5.95;;;14.90;83.80;;;;;;5116419;28;20027;-67
2022/10/02 03:00:15;;;;;;;15.43;6.05;;;14.90;83.80;;;;;;5113800;27;20505;-67
2022/10/02 03:02:40;;;;;;;16.73;5.47;;;14.90;83.90;;;;;;5131447;27;20110;-67
2022/10/02 03:05:17;;;;;;;13.95;5.65;;;14.90;83.90;;;;;;5115835;28;20160;-67
2022/10/02 03:08:00;;;;;;;14.13;6.30;;;14.90;83.90;;;;;;5115628;28;20019;-67
2022/10/02 03:11:00;;;;;;;10.30;5.53;;;14.80;83.90;;;;;;5113528;28;20040;-67
2022/10/02 03:14:03;;;;;;;13.95;5.68;;;14.80;84.00;;;;;;5105816;28;20063;-67
2022/10/02 03:16:35;;;;;;;17.17;5.53;;;14.80;83.90;;;;;;5112700;27;20047;-67
2022/10/02 03:19:19;;;;;;;14.02;4.90;;;14.70;83.90;;;;;;5115003;28;20360;-67
2022/10/02 03:22:04;;;;;;;12.30;5.43;;;14.80;84.00;;;;;;5116074;27;20036;-67
2022/10/02 03:24:46;;;;;;;15.32;5.20;;;14.70;83.90;;;;;;5118229;27;20126;-67
2022/10/02 03:27:33;;;;;;;9.65;4.30;;;14.70;84.00;;;;;;5115203;28;20516;-67
2022/10/02 03:30:10;;;;;;;15.00;4.72;;;14.70;84.70;;;;;;5114478;28;20051;-67
2022/10/02 03:32:38;;;;;;;12.20;4.72;;;14.70;84.00;;;;;;5114588;27;20031;-67
2022/10/02 03:35:09;;;;;;;13.20;4.55;;;14.70;84.00;;;;;;5113917;28;20035;-67
2022/10/02 03:37:35;;;;;;;11.60;4.00;;;14.60;84.00;;;;;;5115806;28;20032;-67
2022/10/02 03:40:00;;;;;;;15.00;4.38;;;14.60;84.00;;;;;;5115113;28;20038;-68
2022/10/02 03:42:30;;;;;;;15.82;4.15;;;14.60;84.00;;;;;;5111633;27;20024;-67
2022/10/02 03:44:55;;;;;;;14.73;4.43;;;14.70;84.10;;;;;;5118625;27;20095;-67
2022/10/02 03:47:21;;;;;;;17.45;4.03;;;14.60;84.00;;;;;;5115777;27;20032;-67
2022/10/02 03:49:47;;;;;;;13.60;3.83;;;14.60;84.00;;;;;;5113893;28;20092;-67
2022/10/02 03:52:18;;;;;;;15.38;4.20;;;14.60;84.00;;;;;;5097238;28;20031;-67
2022/10/02 03:54:45;;;;;;;10.02;3.40;;;14.60;84.00;;;;;;5114246;27;20046;-68
2022/10/02 03:57:19;;;;;;;11.02;4.25;;;14.60;84.00;;;;;;5111756;27;20040;-67
2022/10/02 04:00:12;;;;;;;16.02;3.95;;;14.70;84.10;;;;;;5120627;27;20318;-67
2022/10/02 04:02:42;;;;;;;11.98;3.20;;;14.60;84.00;;;;;;5114638;27;20031;-67
2022/10/02 04:05:20;;;;;;;16.65;3.22;;;14.60;84.10;;;;;;5108557;28;20440;-67
2022/10/02 04:07:48;;;;;;;12.27;3.33;;;14.60;84.10;;;;;;5110398;27;20494;-67
2022/10/02 04:10:43;;;;;;;13.90;3.30;;;14.70;84.20;;;;;;5123767;27;20028;-67
2022/10/02 04:13:18;;;;;;;11.18;3.45;;;14.60;84.10;;;;;;5109647;28;20518;-67
2022/10/02 04:16:24;;;;;;;12.50;3.65;;;14.60;84.20;;;;;;5114732;28;20035;-67
2022/10/02 04:18:52;;;;;;;14.55;3.33;;;14.60;84.00;;;;;;5105600;28;20099;-67
2022/10/02 04:21:21;;;;;;;12.45;3.60;;;14.60;84.10;;;;;;5111825;28;20019;-67
2022/10/02 04:24:10;;;;;;;10.57;3.17;;;14.60;84.20;;;;;;5114747;28;20073;-67
2022/10/02 04:26:57;;;;;;;13.75;3.55;;;14.60;84.30;;;;;;5112367;28;20043;-67
2022/10/02 04:29:30;;;;;;;14.73;3.92;;;14.60;84.30;;;;;;5113836;28;20027;-67
2022/10/02 04:32:10;;;;;;;12.65;3.90;;;14.60;84.40;;;;;;5113129;28;20099;-67
2022/10/02 04:34:36;;;;;;;13.23;3.58;;;14.60;84.50;;;;;;5113734;28;20448;-67
2022/10/02 04:37:28;;;;;;;18.08;3.85;;;14.60;84.40;;;;;;5114065;27;20027;-67
2022/10/02 04:39:56;;;;;;;;;;;14.60;84.50;;;;;;5113716;27;20075;-67
2022/10/02 04:42:38;;;;;;;10.75;3.10;;;14.60;84.40;;;;;;5113052;28;19908;-67
2022/10/02 04:45:25;;;;;;;13.00;3.95;;;14.60;84.40;;;;;;5114577;27;20019;-67
2022/10/02 04:47:59;;;;;;;16.45;3.65;;;14.60;84.50;;;;;;5113702;27;20051;-67
2022/10/02 04:50:45;;;;;;;15.52;4.20;;;14.60;84.50;;;;;;5113552;28;20032;-67
2022/10/02 04:53:27;;;;;;;16.27;4.30;;;14.60;84.60;;;;;;5114678;28;20035;-67
2022/10/02 04:56:31;;;;;;;15.90;4.18;;;14.60;84.60;;;;;;5113730;28;20054;-67
2022/10/02 04:59:42;;;;;;;13.90;4.13;;;14.60;84.60;;;;;;5114434;27;20096;-69
2022/10/02 05:02:26;;;;;;;12.95;3.50;;;14.60;84.50;;;;;;5111198;28;20058;-67
2022/10/02 05:05:21;;;;;;;10.48;3.33;;;14.60;84.60;;;;;;5114528;28;20467;-68
2022/10/02 05:08:06;;;;;;;15.13;4.72;;;14.50;84.60;;;;;;5126325;27;20448;-67
2022/10/02 05:10:50;;;;;;;14.23;4.60;;;14.50;84.60;;;;;;5130484;27;20031;-68
2022/10/02 05:13:27;;;;;;;12.07;4.15;;;14.50;84.60;;;;;;5115737;28;20118;-67
2022/10/02 05:16:15;;;;;;;16.33;4.63;;;14.50;84.60;;;;;;5130987;27;20425;-66
2022/10/02 05:18:55;;;;;;;13.40;3.63;;;14.50;84.60;;;;;;5115613;28;20108;-66
2022/10/02 05:21:50;;;;;;;16.55;4.32;;;14.50;84.60;;;;;;5114142;27;20417;-67
2022/10/02 05:24:26;;;;;;;14.73;4.55;;;14.50;84.70;;;;;;5115619;28;20023;-67
2022/10/02 05:27:14;;;;;;;17.27;4.43;;;14.50;84.70;;;;;;5119765;27;20069;-67
2022/10/02 05:30:03;;;;;;;12.40;3.75;;;14.50;84.60;;;;;;5113878;28;20398;-67
2022/10/02 05:32:58;;;;;;;15.60;4.00;;;14.50;84.60;;;;;;5102435;28;20024;-67
2022/10/02 05:35:57;;;;;;;13.00;4.35;;;14.50;84.60;;;;;;5112595;28;20034;-67
2022/10/02 05:38:37;;;;;;;13.98;4.32;;;14.50;84.60;;;;;;5111891;28;20155;-69
2022/10/02 05:41:25;;;;;;;10.82;3.78;;;14.50;84.60;;;;;;5110898;27;20028;-70
2022/10/02 05:44:08;;;;;;;17.13;4.93;;;14.50;84.60;;;;;;5106375;28;20334;-71
2022/10/02 05:46:44;;;;;;;15.02;4.45;;;14.50;84.60;;;;;;5109706;28;20172;-67
2022/10/02 05:49:21;;;;;;;13.70;4.70;;;14.50;84.80;;;;;;5108033;28;20075;-69
2022/10/02 05:51:58;;;;;;;13.98;4.13;;;14.50;84.70;;;;;;5109651;28;20027;-67
2022/10/02 05:54:36;;;;;;;15.27;4.07;;;14.50;84.80;;;;;;5124087;27;20026;-68
2022/10/02 05:57:05;;;;;;;13.65;3.80;;;14.50;84.70;;;;;;5115515;28;20031;-70
2022/10/02 05:59:52;;;;;;;12.43;4.40;;;14.50;84.70;;;;;;5128707;27;20016;-67
2022/10/02 06:02:41;;;;;;;13.18;3.40;;;14.50;84.70;;;;;;5112650;28;20031;-69
2022/10/02 06:05:37;;;;;;;14.05;3.70;;;14.50;84.70;;;;;;5112521;28;20031;-68
2022/10/02 06:08:09;;;;;;;11.25;3.42;;;14.50;84.70;;;;;;5084399;28;20050;-67
2022/10/02 06:10:42;;;;;;;14.13;3.17;;;14.50;84.70;;;;;;5110640;28;20326;-68
2022/10/02 06:13:14;;;;;;;17.95;4.57;;;14.50;84.70;;;;;;5115376;28;20095;-70
2022/10/02 06:15:50;;;;;;;13.23;4.30;;;14.60;84.80;;;;;;5125266;28;20079;-69
2022/10/02 06:18:20;;;;;;;16.67;4.22;;;14.60;84.70;;;;;;5118619;28;20485;-70
2022/10/02 06:20:50;;;;;;;11.80;3.80;;;14.60;84.80;;;;;;5119077;28;20027;-70
2022/10/02 06:23:25;;;;;;;18.25;4.53;;;14.60;84.80;;;;;;5135737;27;20028;-70
2022/10/02 06:26:13;;;;;;;12.00;3.58;;;14.70;84.90;;;;;;5127425;27;20035;-69
2022/10/02 06:28:43;;;;;;;13.90;4.03;;;14.70;85.00;;;;;;5122941;27;20047;-70
2022/10/02 06:31:22;;;;;;;12.82;3.60;;;14.70;85.00;;;;;;5118965;28;20031;-70
2022/10/02 06:33:51;;;;;;;11.02;4.13;;;14.70;85.10;;;;;;5119047;28;20043;-70
2022/10/02 06:36:20;;;;;;;15.90;3.92;;;14.70;85.00;;;;;;5126611;27;20027;-70
2022/10/02 06:38:57;;;;;;;12.13;3.83;;;14.80;85.10;;;;;;5122117;27;20035;-70
2022/10/02 06:41:37;;;;;;;11.60;3.38;;;14.80;85.00;;;;;;5119105;28;20090;-70
2022/10/02 06:44:22;;;;;;;10.95;3.03;;;14.80;85.10;;;;;;5117730;28;20024;-70
2022/10/02 06:47:13;;;;;;;12.55;3.60;;;14.80;85.10;;;;;;5118683;28;20075;-70
2022/10/02 06:49:55;;;;;;;13.10;3.72;;;14.80;85.10;;;;;;5122594;27;20035;-70
2022/10/02 06:52:42;;;;;;;11.98;3.00;;;14.90;85.20;;;;;;5129463;27;20070;-70
2022/10/02 06:55:41;;;;;;;13.77;3.42;;;14.90;85.20;;;;;;5127521;27;20103;-70
2022/10/02 06:58:22;;;;;;;11.60;3.33;;;14.90;85.10;;;;;;5117723;28;20063;-70
2022/10/02 07:00:55;;;;;;;14.48;3.47;;;15.00;85.10;;;;;;5134768;27;20028;-70
2022/10/02 07:03:51;;;;;;;12.93;3.50;;;15.00;85.10;;;;;;5118111;28;20030;-70
2022/10/02 07:06:53;;;;;;;9.40;3.17;;;15.00;85.20;;;;;;5122093;27;20360;-70
2022/10/02 07:09:35;;;;;;;9.07;2.70;;;15.00;85.10;;;;;;5117874;28;20479;-70
2022/10/02 07:12:42;;;;;;;14.32;3.55;;;15.10;85.10;;;;;;5128805;27;20125;-70
2022/10/02 07:15:35;;;;;;;9.80;3.42;;;15.10;84.90;;;;;;5092000;28;20131;-70
2022/10/02 07:18:36;;;;;;;11.77;2.95;;;15.20;84.90;;;;;;5104162;28;20452;-70
2022/10/02 07:21:06;;;;;;;9.25;3.30;;;15.30;84.90;;;;;;5117122;28;20436;-70
2022/10/02 07:24:15;;;;;;;11.20;3.00;;;15.30;84.80;;;;;;5118067;28;20051;-70
2022/10/02 07:26:52;;;;;;;12.27;3.50;;;15.40;85.40;;;;;;5041049;28;20033;-70
2022/10/02 07:29:43;;;;;;;14.52;3.50;;;15.40;84.70;;;;;;5064593;28;20531;-70
2022/10/02 07:32:30;;;;;;;13.05;3.75;;;15.50;84.70;;;;;;5059384;28;20166;-70
2022/10/02 07:35:05;;;;;;;10.48;3.30;;;15.60;84.60;;;;;;5075847;28;20056;-70
2022/10/02 07:37:31;;;;;;;13.90;3.50;;;15.70;84.50;;;;;;5075464;28;20376;-70
2022/10/02 07:40:14;;;;;;;14.05;3.63;;;15.70;84.40;;;;;;5075486;28;20024;-70
2022/10/02 07:42:51;;;;;;;13.18;3.30;;;15.80;84.40;;;;;;5073756;28;20045;-70
2022/10/02 07:45:22;;;;;;;12.35;3.22;;;15.90;84.40;;;;;;5075702;28;20028;-70
2022/10/02 07:48:08;;;;;;;13.30;3.42;;;15.90;84.50;;;;;;5059183;28;20047;-70
2022/10/02 07:51:05;;;;;;;13.90;3.22;;;15.90;84.40;;;;;;5075575;28;20063;-70
2022/10/02 07:53:39;;;;;;;12.43;3.10;;;16.00;84.40;;;;;;5075303;28;20032;-70
2022/10/02 07:56:18;;;;;;;9.43;3.28;;;16.00;84.30;;;;;;5075310;28;20083;-70
2022/10/02 07:59:07;;;;;;;10.05;3.10;;;16.00;84.40;;;;;;5073820;28;20032;-70
2022/10/02 08:01:39;;;;;;;9.07;3.33;;;16.00;84.30;;;;;;5075581;28;20032;-70
2022/10/02 08:04:11;;;;;;;11.50;3.08;;;16.00;84.50;;;;;;5121119;27;20360;-70
2022/10/02 08:06:38;;;;;;;8.88;3.05;;;16.00;84.50;;;;;;5120972;27;20373;-70
2022/10/02 08:09:14;;;;;;;11.07;3.35;;;16.10;84.50;;;;;;5117428;28;20064;-70
2022/10/02 08:11:47;;;;;;;11.10;3.08;;;16.10;84.50;;;;;;5133524;27;20110;-70
2022/10/02 08:14:21;;;;;;;11.50;2.75;;;16.10;84.40;;;;;;5099592;28;20115;-70
2022/10/02 08:16:52;;;;;;;9.38;3.22;;;16.20;84.40;;;;;;5116067;27;20108;-70
2022/10/02 08:19:26;;;;;;;10.88;3.10;;;16.20;84.40;;;;;;5118926;27;20456;-70
2022/10/02 08:21:59;;;;;;;11.35;3.03;;;16.30;84.30;;;;;;5116992;28;20051;-70
2022/10/02 08:24:37;;;;;;;9.15;2.83;;;16.40;84.30;;;;;;5133292;27;20038;-70
2022/10/02 08:27:09;;;;;;;8.70;3.00;;;16.50;84.10;;;;;;5116253;28;20035;-70
2022/10/02 08:29:51;;;;;;;9.73;2.83;;;16.70;83.70;;;;;;5115985;28;20026;-70
2022/10/02 08:32:17;;;;;;;11.77;3.10;;;16.90;83.40;;;;;;5098192;28;20360;-70
2022/10/02 08:34:43;;;;;;;11.80;3.03;;;17.00;83.10;;;;;;5132961;27;20031;-70
2022/10/02 08:37:28;;;;;;;12.57;3.03;;;17.00;83.00;;;;;;5098602;28;20340;-70
2022/10/02 08:40:18;;;;;;;12.18;2.75;;;17.10;83.00;;;;;;5115942;28;20031;-70
2022/10/02 08:42:44;;;;;;;12.00;2.92;;;17.20;82.90;;;;;;5116973;28;20027;-70
2022/10/02 08:45:55;;;;;;;10.73;2.80;;;17.30;82.60;;;;;;5099040;28;20032;-70
2022/10/02 08:48:54;;;;;;;7.73;2.17;;;17.50;82.30;;;;;;5098357;28;20468;-70
2022/10/02 08:51:40;;;;;;;13.15;2.53;;;17.60;82.00;;;;;;5116572;28;20040;-70
2022/10/02 08:54:25;;;;;;;8.75;2.28;;;17.60;81.80;;;;;;5132922;27;20046;-70
2022/10/02 08:57:07;;;;;;;11.48;3.00;;;17.70;81.60;;;;;;5116648;28;20031;-70
2022/10/02 08:59:48;;;;;;;10.70;2.63;;;17.70;81.50;;;;;;5116523;28;20123;-70
2022/10/02 09:02:38;;;;;;;11.10;3.17;;;17.80;81.40;;;;;;5115061;28;20504;-70
2022/10/02 09:05:26;;;;;;;11.02;2.53;;;17.90;81.20;;;;;;5116357;28;20058;-70
2022/10/02 09:08:07;;;;;;;11.00;3.03;;;18.00;81.00;;;;;;5114920;28;20039;-70
2022/10/02 09:11:12;;;;;;;11.52;2.33;;;18.10;80.90;;;;;;5132304;27;20023;-71
2022/10/02 09:13:55;;;;;;;8.25;2.40;;;18.20;80.60;;;;;;5115714;28;20035;-71
2022/10/02 09:16:42;;;;;;;8.77;2.40;;;18.30;80.50;;;;;;5115898;28;20066;-71
2022/10/02 09:19:45;;;;;;;9.80;2.58;;;18.30;80.30;;;;;;5131095;27;20089;-71
2022/10/02 09:22:32;;;;;;;13.07;2.47;;;18.30;80.20;;;;;;5076332;28;20421;-71
2022/10/02 09:25:27;;;;;;;11.63;2.53;;;18.30;80.20;;;;;;5115800;28;20414;-70
2022/10/02 09:28:11;;;;;;;10.60;2.92;;;18.30;80.10;;;;;;5104403;28;20347;-71
2022/10/02 09:31:02;;;;;;;9.27;2.88;;;18.30;80.10;;;;;;5116250;28;20038;-70
2022/10/02 09:34:00;;;;;;;9.40;2.40;;;18.30;80.00;;;;;;5097154;28;20393;-70
2022/10/02 09:37:03;;;;;;;13.55;2.55;;;18.40;79.90;;;;;;5061764;28;20048;-70
2022/10/02 09:39:52;;;;;;;11.57;2.67;;;18.40;79.70;;;;;;5073466;28;20044;-70
2022/10/02 09:42:51;;;;;;;11.65;2.70;;;18.40;79.60;;;;;;5071662;28;20492;-70
2022/10/02 09:45:47;;;;;;;8.15;2.33;;;18.40;79.40;;;;;;5056615;28;20319;-70
2022/10/02 09:48:19;;;;;;;8.82;2.20;;;18.40;79.60;;;;;;5073777;28;20036;-70
2022/10/02 09:51:04;;;;;;;;;;;18.30;79.60;;;;;;5073769;28;20465;-70
2022/10/02 09:53:43;;;;;;;9.90;2.30;;;18.40;79.70;;;;;;5055355;28;19962;-70
2022/10/02 09:56:39;;;;;;;11.32;3.30;;;18.30;79.50;;;;;;5040127;28;20369;-70
2022/10/02 09:59:29;;;;;;;12.75;3.05;;;18.30;79.40;;;;;;5056039;28;20037;-70
2022/10/02 10:02:07;;;;;;;7.05;2.47;;;18.20;79.30;;;;;;5073172;28;20111;-70
2022/10/02 10:05:07;;;;;;;11.00;2.22;;;18.10;79.40;;;;;;5056889;28;20028;-70
2022/10/02 10:07:44;;;;;;;14.77;3.05;;;18.20;79.30;;;;;;5072127;28;20039;-67
2022/10/02 10:10:28;;;;;;;11.20;2.58;;;18.20;79.00;;;;;;5072992;28;20126;-68
2022/10/02 10:13:16;;;;;;;11.77;2.55;;;18.30;78.70;;;;;;5120755;27;20043;-69
2022/10/02 10:16:10;;;;;;;10.52;2.58;;;18.50;78.40;;;;;;5110999;28;20039;-66
2022/10/02 10:19:06;;;;;;;11.32;2.63;;;18.70;77.70;;;;;;5110902;28;20032;-66
2022/10/02 10:22:20;;;;;;;9.00;2.25;;;18.80;77.30;;;;;;5113635;28;20111;-66
2022/10/02 10:24:57;;;;;;;9.95;2.17;;;19.00;76.80;;;;;;5112295;28;20024;-65
2022/10/02 10:27:42;;;;;;;6.22;1.85;;;19.00;76.30;;;;;;5111168;28;20356;-66
2022/10/02 10:30:13;;;;;;;8.77;2.33;;;19.10;76.10;;;;;;5111755;28;20034;-65
2022/10/02 10:32:55;;;;;;;9.07;2.15;;;19.40;75.40;;;;;;5112373;28;20437;-66
2022/10/02 10:35:26;;;;;;;;;;;19.50;74.80;;;;;;5113367;28;20498;-66
2022/10/02 10:41:08;;;;;;;8.20;1.38;;;19.70;74.60;;;;;;5110525;28;19969;-67
2022/10/02 10:44:00;;;;;;;8.82;2.00;;;19.80;73.90;;;;;;5113211;28;20036;-66
2022/10/02 10:46:52;;;;;;;10.30;2.40;;;19.80;73.20;;;;;;5111884;28;20512;-66
2022/10/02 10:50:01;;;;;;;6.60;2.42;;;19.70;73.10;;;;;;5114393;28;20035;-66
2022/10/02 10:52:41;;;;;;;12.07;2.38;;;19.50;72.90;;;;;;5112111;28;20060;-65
2022/10/02 10:55:16;;;;;;;7.60;2.15;;;19.40;72.80;;;;;;5127721;28;20035;-65
2022/10/02 10:58:13;;;;;;;7.20;1.80;;;19.20;73.00;;;;;;5111645;28;20027;-65
2022/10/02 11:00:51;;;;;;;8.48;2.00;;;19.10;72.70;;;;;;5111651;28;20086;-66
2022/10/02 11:03:57;;;;;;;10.43;2.25;;;19.20;72.50;;;;;;5129384;27;20023;-67
2022/10/02 11:07:20;;;;;;;8.70;1.98;;;19.10;72.30;;;;;;5116324;28;20055;-66
2022/10/02 11:09:55;;;;;;;9.00;1.80;;;19.00;72.40;;;;;;5046507;28;20116;-66
2022/10/02 11:12:30;;;;;;;8.55;2.35;;;18.80;72.30;;;;;;5054230;28;20064;-66
2022/10/02 11:15:11;;;;;;;5.63;1.88;;;18.80;71.90;;;;;;5052533;28;20128;-67
2022/10/02 11:17:52;;;;;;;6.70;2.30;;;18.70;71.80;;;;;;5037317;28;20045;-68
2022/10/02 11:20:42;;;;;;;7.63;2.08;;;18.70;71.80;;;;;;5053919;28;20374;-68
2022/10/02 11:23:34;;;;;;;8.48;2.08;;;18.70;71.80;;;;;;5054020;28;20120;-68
2022/10/02 11:26:27;;;;;;;8.73;2.10;;;18.70;71.90;;;;;;5053777;28;20331;-67
2022/10/02 11:29:06;;;;;;;7.43;2.20;;;18.60;71.70;;;;;;5037580;28;20441;-66
2022/10/02 11:31:59;;;;;;;9.10;2.75;;;18.70;71.70;;;;;;5057985;28;20046;-68
2022/10/02 11:34:36;;;;;;;11.85;2.53;;;18.80;71.30;;;;;;5049671;28;20048;-67
2022/10/02 11:37:38;;;;;;;8.32;2.10;;;18.90;70.90;;;;;;5053563;28;20374;-67
2022/10/02 11:40:21;;;;;;;11.07;2.45;;;19.00;70.80;;;;;;5069275;27;20039;-67
2022/10/02 11:42:59;;;;;;;8.70;1.95;;;19.00;70.80;;;;;;5114275;27;20058;-67
2022/10/02 11:45:47;;;;;;;10.10;2.63;;;19.10;70.90;;;;;;5114766;28;20023;-67
2022/10/02 11:48:49;;;;;;;8.95;2.10;;;19.10;70.70;;;;;;5113901;27;20024;-67
2022/10/02 11:51:29;;;;;;;9.18;2.30;;;19.20;70.30;;;;;;5112591;27;20028;-67
2022/10/02 11:54:22;;;;;;;6.78;1.80;;;19.20;70.00;;;;;;5113592;28;20110;-68
2022/10/02 11:57:09;;;;;;;8.70;1.75;;;19.10;69.80;;;;;;5117224;28;20414;-67
2022/10/02 12:00:05;;;;;;;8.98;2.10;;;19.00;69.60;;;;;;5106585;27;20027;-67
2022/10/02 12:03:08;;;;;;;11.32;2.80;;;19.00;69.20;;;;;;5119864;27;20367;-67
2022/10/02 12:05:39;;;;;;;10.15;2.10;;;19.00;69.30;;;;;;5111830;28;20023;-69
2022/10/02 12:08:18;;;;;;;;;;;19.00;69.40;;;;;;5116241;28;20035;-67
2022/10/02 12:10:55;;;;;;;10.07;2.47;;;18.90;69.60;;;;;;5132541;27;19912;-67
2022/10/02 12:13:46;;;;;;;12.73;1.88;;;18.80;69.80;;;;;;5103985;27;20061;-67
2022/10/02 12:16:23;;;;;;;8.18;2.05;;;18.70;69.80;;;;;;5116957;27;20059;-67
2022/10/02 12:19:31;;;;;;;8.15;2.08;;;18.60;69.70;;;;;;5132982;27;20031;-67
2022/10/02 12:28:22;;;;;;;7.95;2.20;;;18.60;69.70;;;;;;5115160;28;20024;-67
2022/10/02 12:31:12;;;;;;;7.18;1.75;;;18.50;69.30;;;;;;5121615;27;20030;-67
2022/10/02 12:34:13;;;;;;;8.52;2.17;;;18.60;69.20;;;;;;5117007;27;20050;-67
2022/10/02 12:36:41;;;;;;;9.43;2.25;;;18.70;68.80;;;;;;5118618;27;20054;-67
2022/10/02 12:39:13;;;;;;;7.70;1.98;;;18.80;68.60;;;;;;5118197;27;20367;-67
2022/10/02 12:41:51;;;;;;;5.97;1.90;;;18.80;68.50;;;;;;5116417;28;20039;-67
2022/10/02 12:44:39;;;;;;;10.30;2.33;;;18.80;68.30;;;;;;5133211;27;20023;-67
2022/10/02 12:47:18;;;;;;;8.80;1.77;;;18.90;68.00;;;;;;5118453;27;20030;-67
2022/10/02 12:49:52;;;;;;;8.07;1.63;;;18.90;67.10;;;;;;5118723;27;20020;-67
2022/10/02 12:52:30;;;;;;;9.00;2.30;;;18.90;66.90;;;;;;5116265;28;20019;-67
2022/10/02 12:55:14;;;;;;;7.70;2.00;;;18.90;66.70;;;;;;5131872;27;20027;-67
2022/10/02 12:57:55;;;;;;;8.55;1.95;;;18.90;66.70;;;;;;5116379;27;20028;-68
2022/10/02 13:00:28;;;;;;;;;;;18.80;66.20;;;;;;5116529;28;20020;-67
2022/10/02 13:03:08;;;;;;;6.25;1.55;;;18.80;66.70;;;;;;5115927;28;19955;-67
2022/10/02 13:05:55;;;;;;;7.57;2.07;;;18.80;66.50;;;;;;5114365;28;20360;-67
2022/10/02 13:08:26;;;;;;;7.68;1.98;;;18.70;66.10;;;;;;5130995;27;20446;-66
2022/10/02 13:11:03;;;;;;;;;;;18.70;66.50;;;;;;5116292;28;20356;-67
2022/10/02 13:14:16;;;;;;;9.57;2.03;;;18.60;66.70;;;;;;5127659;27;19908;-67
2022/10/02 13:16:45;;;;;;;8.73;2.67;;;18.60;66.90;;;;;;5081705;28;20062;-67
2022/10/02 13:19:23;;;;;;;8.07;2.40;;;18.60;66.80;;;;;;5116193;28;20099;-67
2022/10/02 13:22:11;;;;;;;8.68;2.33;;;18.70;66.80;;;;;;5117559;27;20118;-67
2022/10/02 13:25:20;;;;;;;8.63;2.45;;;18.70;66.50;;;;;;5118732;27;20028;-67
2022/10/02 13:28:23;;;;;;;9.43;2.30;;;18.70;66.10;;;;;;5113242;27;20455;-66
2022/10/02 13:31:18;;;;;;;8.88;2.17;;;18.70;66.70;;;;;;5112402;28;20118;-67
2022/10/02 13:34:28;;;;;;;9.30;2.50;;;18.80;66.10;;;;;;5071125;28;20040;-67
2022/10/02 13:37:12;;;;;;;8.60;2.03;;;18.80;65.90;;;;;;5072361;28;20460;-67
2022/10/02 13:39:53;;;;;;;6.75;1.95;;;18.90;65.70;;;;;;5072720;28;20043;-67
2022/10/02 13:42:35;;;;;;;8.48;2.30;;;18.90;65.50;;;;;;5075789;28;20081;-67
2022/10/02 13:45:07;;;;;;;7.38;1.90;;;18.80;65.30;;;;;;5072533;28;20029;-67
2022/10/02 13:47:37;;;;;;;6.57;1.88;;;18.80;65.20;;;;;;5072535;28;20419;-67
2022/10/02 13:50:22;;;;;;;7.38;2.05;;;18.70;65.10;;;;;;5071870;28;20465;-67
2022/10/02 13:53:08;;;;;;;5.85;1.85;;;18.60;64.90;;;;;;5071422;28;20115;-67
2022/10/02 13:55:46;;;;;;;10.65;2.33;;;18.50;64.90;;;;;;5070702;28;20361;-66
2022/10/02 13:58:52;;;;;;;10.02;2.38;;;18.50;64.90;;;;;;5080807;28;20541;-67
2022/10/02 14:01:34;;;;;;;8.85;1.75;;;18.40;65.10;;;;;;5081064;28;20025;-67
2022/10/02 14:04:12;;;;;;;12.10;1.85;;;18.40;65.00;;;;;;5069854;28;20040;-66
2022/10/02 14:06:44;;;;;;;9.30;2.00;;;18.40;65.20;;;;;;5072730;28;20075;-66
2022/10/02 14:09:30;;;;;;;7.25;1.55;;;18.40;65.10;;;;;;5077094;28;20048;-66